sensor_id;sensor_type;location;lat;lon;timestamp;P1;durP1;ratioP1;P2;durP2;ratioP2
47513;SDS011;33951;51.988;5.910;2023-10-08T07:17:59;12.52;;;6.68;;
47513;SDS011;33951;51.988;5.910;2023-10-08T07:20:36;8.98;;;5.30;;
47513;SDS011;33951;51.988;5.910;2023-10-08T07:23:13;7.93;;;5.60;;
47513;SDS011;33951;51.988;5.910;2023-10-08T07:26:07;6.60;;;5.80;;
47513;SDS011;33951;51.988;5.910;2023-10-08T07:29:25;6.07;;;5.47;;
47513;SDS011;33951;51.988;5.910;2023-10-08T07:31:51;6.82;;;5.80;;
47513;SDS011;33951;51.988;5.910;2023-10-08T07:34:47;10.00;;;7.07;;
47513;SDS011;33951;51.988;5.910;2023-10-08T07:37:22;6.43;;;5.82;;
47513;SDS011;33951;51.988;5.910;2023-10-08T07:39:59;7.82;;;6.20;;
47513;SDS011;33951;51.988;5.910;2023-10-08T07:42:28;8.48;;;5.97;;
47513;SDS011;33951;51.988;5.910;2023-10-08T07:44:54;7.65;;;5.60;;
47513;SDS011;33951;51.988;5.910;2023-10-08T07:47:32;5.53;;;4.97;;
47513;SDS011;33951;51.988;5.910;2023-10-08T07:50:01;7.88;;;5.65;;
47513;SDS011;33951;51.988;5.910;2023-10-08T07:52:44;7.13;;;6.43;;
47513;SDS011;33951;51.988;5.910;2023-10-08T07:58:00;9.75;;;6.88;;
47513;SDS011;33951;51.988;5.910;2023-10-08T08:00:35;7.00;;;5.50;;
47513;SDS011;33951;51.988;5.910;2023-10-08T08:03:12;8.20;;;7.40;;
47513;SDS011;33951;51.988;5.910;2023-10-08T08:05:43;8.93;;;7.25;;
47513;SDS011;33951;51.988;5.910;2023-10-08T08:08:19;8.50;;;7.60;;
47513;SDS011;33951;51.988;5.910;2023-10-08T08:10:54;8.63;;;7.65;;
47513;SDS011;33951;51.988;5.910;2023-10-08T08:14:00;10.05;;;8.73;;
47513;SDS011;33951;51.988;5.910;2023-10-08T08:16:25;9.77;;;8.80;;
47513;SDS011;33951;51.988;5.910;2023-10-08T08:19:19;12.27;;;8.95;;
47513;SDS011;33951;51.988;5.910;2023-10-08T08:21:53;9.32;;;8.40;;
47513;SDS011;33951;51.988;5.910;2023-10-08T08:24:35;9.95;;;8.68;;
47513;SDS011;33951;51.988;5.910;2023-10-08T08:29:48;10.15;;;9.05;;
47513;SDS011;33951;51.988;5.910;2023-10-08T08:32:35;10.73;;;8.60;;
47513;SDS011;33951;51.988;5.910;2023-10-08T08:35:20;9.90;;;8.30;;
47513;SDS011;33951;51.988;5.910;2023-10-08T08:41:04;10.15;;;9.10;;
47513;SDS011;33951;51.988;5.910;2023-10-08T08:43:36;9.95;;;7.60;;
47513;SDS011;33951;51.988;5.910;2023-10-08T08:46:09;24.02;;;9.60;;
47513;SDS011;33951;51.988;5.910;2023-10-08T08:48:46;12.20;;;8.05;;
47513;SDS011;33951;51.988;5.910;2023-10-08T08:51:19;16.20;;;11.45;;
47513;SDS011;33951;51.988;5.910;2023-10-08T08:54:12;11.52;;;8.48;;
47513;SDS011;33951;51.988;5.910;2023-10-08T09:31:51;5.30;;;3.00;;
47513;SDS011;33951;51.988;5.910;2023-10-08T09:40:57;5.47;;;2.80;;
47513;SDS011;33951;51.988;5.910;2023-10-08T09:43:48;6.82;;;3.10;;
47513;SDS011;33951;51.988;5.910;2023-10-08T09:50:11;6.25;;;2.85;;
47513;SDS011;33951;51.988;5.910;2023-10-08T09:59:10;6.38;;;3.10;;
47513;SDS011;33951;51.988;5.910;2023-10-08T10:05:03;8.20;;;3.13;;
47513;SDS011;33951;51.988;5.910;2023-10-08T10:07:46;5.85;;;2.88;;
47513;SDS011;33951;51.988;5.910;2023-10-08T10:13:14;4.43;;;2.50;;
47513;SDS011;33951;51.988;5.910;2023-10-08T10:16:09;4.47;;;2.72;;
47513;SDS011;33951;51.988;5.910;2023-10-08T10:34:24;4.93;;;2.83;;
47513;SDS011;33951;51.988;5.910;2023-10-08T10:37:33;16.57;;;7.33;;
47513;SDS011;33951;51.988;5.910;2023-10-08T10:43:58;6.85;;;2.90;;
47513;SDS011;33951;51.988;5.910;2023-10-08T10:54:36;6.55;;;2.10;;
47513;SDS011;33951;51.988;5.910;2023-10-08T11:17:39;10.00;;;5.43;;
47513;SDS011;33951;51.988;5.910;2023-10-08T11:20:36;4.53;;;2.42;;
47513;SDS011;33951;51.988;5.910;2023-10-08T11:23:45;4.80;;;2.10;;
47513;SDS011;33951;51.988;5.910;2023-10-08T11:26:45;5.38;;;2.20;;
47513;SDS011;33951;51.988;5.910;2023-10-08T11:32:57;5.88;;;2.17;;
47513;SDS011;33951;51.988;5.910;2023-10-08T11:36:16;2.65;;;1.70;;
47513;SDS011;33951;51.988;5.910;2023-10-08T11:43:04;5.70;;;2.17;;
47513;SDS011;33951;51.988;5.910;2023-10-08T11:45:40;5.60;;;2.05;;
47513;SDS011;33951;51.988;5.910;2023-10-08T11:48:34;6.72;;;2.33;;
47513;SDS011;33951;51.988;5.910;2023-10-08T11:54:55;4.25;;;2.35;;
47513;SDS011;33951;51.988;5.910;2023-10-08T12:39:32;8.23;;;3.20;;
47513;SDS011;33951;51.988;5.910;2023-10-08T15:57:53;5.13;;;2.60;;
47513;SDS011;33951;51.988;5.910;2023-10-08T16:00:36;5.80;;;2.53;;
47513;SDS011;33951;51.988;5.910;2023-10-08T16:03:17;3.58;;;2.70;;
47513;SDS011;33951;51.988;5.910;2023-10-08T16:05:45;5.22;;;2.75;;
47513;SDS011;33951;51.988;5.910;2023-10-08T16:08:14;6.50;;;3.10;;
47513;SDS011;33951;51.988;5.910;2023-10-08T16:10:50;6.68;;;2.90;;
47513;SDS011;33951;51.988;5.910;2023-10-08T16:13:16;5.68;;;3.15;;
47513;SDS011;33951;51.988;5.910;2023-10-08T16:15:53;6.60;;;3.53;;
47513;SDS011;33951;51.988;5.910;2023-10-08T16:18:24;10.40;;;3.33;;
47513;SDS011;33951;51.988;5.910;2023-10-08T16:20:50;6.40;;;3.70;;
47513;SDS011;33951;51.988;5.910;2023-10-08T16:23:23;5.57;;;3.53;;
47513;SDS011;33951;51.988;5.910;2023-10-08T16:25:54;9.07;;;3.10;;
47513;SDS011;33951;51.988;5.910;2023-10-08T16:28:30;6.90;;;3.35;;
47513;SDS011;33951;51.988;5.910;2023-10-08T16:30:59;6.57;;;3.50;;
47513;SDS011;33951;51.988;5.910;2023-10-08T16:37:08;7.22;;;3.17;;
47513;SDS011;33951;51.988;5.910;2023-10-08T16:39:42;6.57;;;3.13;;
47513;SDS011;33951;51.988;5.910;2023-10-08T16:42:15;5.18;;;2.97;;
47513;SDS011;33951;51.988;5.910;2023-10-08T16:44:43;7.95;;;3.53;;
47513;SDS011;33951;51.988;5.910;2023-10-08T16:47:10;13.00;;;3.53;;
47513;SDS011;33951;51.988;5.910;2023-10-08T16:49:48;4.32;;;2.67;;
47513;SDS011;33951;51.988;5.910;2023-10-08T16:52:19;5.50;;;2.88;;
47513;SDS011;33951;51.988;5.910;2023-10-08T16:54:55;6.40;;;3.17;;
47513;SDS011;33951;51.988;5.910;2023-10-08T16:57:33;7.45;;;3.00;;
47513;SDS011;33951;51.988;5.910;2023-10-08T17:00:02;8.70;;;4.55;;
47513;SDS011;33951;51.988;5.910;2023-10-08T17:02:41;117.80;;;62.63;;
47513;SDS011;33951;51.988;5.910;2023-10-08T17:05:27;11.35;;;5.88;;
47513;SDS011;33951;51.988;5.910;2023-10-08T17:07:59;8.63;;;4.18;;
47513;SDS011;33951;51.988;5.910;2023-10-08T17:10:25;7.95;;;3.28;;
47513;SDS011;33951;51.988;5.910;2023-10-08T17:12:55;6.82;;;3.20;;
47513;SDS011;33951;51.988;5.910;2023-10-08T17:15:30;8.10;;;4.05;;
47513;SDS011;33951;51.988;5.910;2023-10-08T17:18:04;6.97;;;3.45;;
47513;SDS011;33951;51.988;5.910;2023-10-08T17:20:38;6.53;;;3.60;;
47513;SDS011;33951;51.988;5.910;2023-10-08T17:23:17;6.32;;;3.35;;
47513;SDS011;33951;51.988;5.910;2023-10-08T17:26:09;8.65;;;3.83;;
47513;SDS011;33951;51.988;5.910;2023-10-08T17:28:39;3.78;;;3.08;;
47513;SDS011;33951;51.988;5.910;2023-10-08T17:31:14;8.15;;;4.68;;
47513;SDS011;33951;51.988;5.910;2023-10-08T17:33:42;32.63;;;13.93;;
47513;SDS011;33951;51.988;5.910;2023-10-08T17:36:10;9.40;;;4.57;;
47513;SDS011;33951;51.988;5.910;2023-10-08T17:38:51;5.13;;;4.03;;
47513;SDS011;33951;51.988;5.910;2023-10-08T17:41:27;11.80;;;5.28;;
47513;SDS011;33951;51.988;5.910;2023-10-08T17:43:59;7.75;;;3.42;;
47513;SDS011;33951;51.988;5.910;2023-10-08T17:46:27;22.77;;;9.32;;
47513;SDS011;33951;51.988;5.910;2023-10-08T17:48:58;5.95;;;4.05;;
47513;SDS011;33951;51.988;5.910;2023-10-08T17:51:38;7.40;;;3.58;;
47513;SDS011;33951;51.988;5.910;2023-10-08T17:54:09;10.48;;;4.13;;
47513;SDS011;33951;51.988;5.910;2023-10-08T17:56:58;9.77;;;4.10;;
47513;SDS011;33951;51.988;5.910;2023-10-08T17:59:27;18.50;;;11.00;;
47513;SDS011;33951;51.988;5.910;2023-10-08T18:01:55;71.32;;;41.75;;
47513;SDS011;33951;51.988;5.910;2023-10-08T18:04:29;58.70;;;29.52;;
47513;SDS011;33951;51.988;5.910;2023-10-08T18:06:57;84.63;;;44.58;;
47513;SDS011;33951;51.988;5.910;2023-10-08T18:09:23;52.55;;;28.58;;
47513;SDS011;33951;51.988;5.910;2023-10-08T18:12:01;16.42;;;9.82;;
47513;SDS011;33951;51.988;5.910;2023-10-08T18:14:52;10.82;;;5.75;;
47513;SDS011;33951;51.988;5.910;2023-10-08T18:17:30;8.85;;;5.10;;
47513;SDS011;33951;51.988;5.910;2023-10-08T18:26:16;11.63;;;5.53;;
47513;SDS011;33951;51.988;5.910;2023-10-08T18:28:48;9.02;;;5.65;;
47513;SDS011;33951;51.988;5.910;2023-10-08T18:31:22;9.55;;;5.15;;
47513;SDS011;33951;51.988;5.910;2023-10-08T18:33:51;8.10;;;4.80;;
47513;SDS011;33951;51.988;5.910;2023-10-08T18:36:35;9.73;;;6.03;;
47513;SDS011;33951;51.988;5.910;2023-10-08T18:39:16;8.23;;;5.43;;
47513;SDS011;33951;51.988;5.910;2023-10-08T18:41:45;10.63;;;5.35;;
47513;SDS011;33951;51.988;5.910;2023-10-08T18:44:33;10.88;;;5.60;;
47513;SDS011;33951;51.988;5.910;2023-10-08T18:47:01;10.75;;;6.30;;
47513;SDS011;33951;51.988;5.910;2023-10-08T18:49:32;8.98;;;5.68;;
47513;SDS011;33951;51.988;5.910;2023-10-08T18:52:02;10.45;;;5.65;;
47513;SDS011;33951;51.988;5.910;2023-10-08T18:54:41;12.05;;;6.00;;
47513;SDS011;33951;51.988;5.910;2023-10-08T18:57:14;12.15;;;6.15;;
47513;SDS011;33951;51.988;5.910;2023-10-08T18:59:45;11.43;;;6.35;;
47513;SDS011;33951;51.988;5.910;2023-10-08T19:02:12;13.52;;;6.53;;
47513;SDS011;33951;51.988;5.910;2023-10-08T19:04:50;10.45;;;6.00;;
47513;SDS011;33951;51.988;5.910;2023-10-08T19:07:19;10.95;;;6.80;;
47513;SDS011;33951;51.988;5.910;2023-10-08T19:09:47;11.13;;;7.55;;
47513;SDS011;33951;51.988;5.910;2023-10-08T19:12:15;15.18;;;7.97;;
47513;SDS011;33951;51.988;5.910;2023-10-08T19:14:44;11.93;;;7.05;;
47513;SDS011;33951;51.988;5.910;2023-10-08T19:20:12;13.52;;;7.93;;
47513;SDS011;33951;51.988;5.910;2023-10-08T19:22:41;10.80;;;6.68;;
47513;SDS011;33951;51.988;5.910;2023-10-08T19:25:08;9.68;;;6.93;;
47513;SDS011;33951;51.988;5.910;2023-10-08T19:27:41;11.30;;;7.30;;
47513;SDS011;33951;51.988;5.910;2023-10-08T19:30:14;13.57;;;7.07;;
47513;SDS011;33951;51.988;5.910;2023-10-08T19:32:56;12.13;;;7.15;;
47513;SDS011;33951;51.988;5.910;2023-10-08T19:35:25;12.40;;;6.88;;
47513;SDS011;33951;51.988;5.910;2023-10-08T19:38:05;13.18;;;6.95;;
47513;SDS011;33951;51.988;5.910;2023-10-08T19:40:45;15.20;;;7.63;;
47513;SDS011;33951;51.988;5.910;2023-10-08T19:43:19;12.88;;;7.13;;
47513;SDS011;33951;51.988;5.910;2023-10-08T19:45:45;11.23;;;6.63;;
47513;SDS011;33951;51.988;5.910;2023-10-08T19:48:25;10.68;;;7.07;;
47513;SDS011;33951;51.988;5.910;2023-10-08T19:51:09;14.20;;;7.18;;
47513;SDS011;33951;51.988;5.910;2023-10-08T20:05:11;17.95;;;9.85;;
47513;SDS011;33951;51.988;5.910;2023-10-08T20:07:41;14.00;;;8.75;;
47513;SDS011;33951;51.988;5.910;2023-10-08T20:10:18;12.60;;;7.80;;
47513;SDS011;33951;51.988;5.910;2023-10-08T20:12:47;12.63;;;8.02;;
47513;SDS011;33951;51.988;5.910;2023-10-08T20:15:29;14.48;;;7.30;;
47513;SDS011;33951;51.988;5.910;2023-10-08T20:18:22;15.55;;;7.80;;
47513;SDS011;33951;51.988;5.910;2023-10-08T20:20:55;13.68;;;7.75;;
47513;SDS011;33951;51.988;5.910;2023-10-08T20:23:21;18.00;;;9.18;;
47513;SDS011;33951;51.988;5.910;2023-10-08T20:26:13;14.18;;;7.70;;
47513;SDS011;33951;51.988;5.910;2023-10-08T20:29:10;11.32;;;6.97;;
47513;SDS011;33951;51.988;5.910;2023-10-08T20:31:39;12.23;;;7.35;;
47513;SDS011;33951;51.988;5.910;2023-10-08T20:34:07;10.02;;;7.03;;
47513;SDS011;33951;51.988;5.910;2023-10-08T20:36:38;13.25;;;7.10;;
47513;SDS011;33951;51.988;5.910;2023-10-08T20:39:11;9.85;;;7.25;;
47513;SDS011;33951;51.988;5.910;2023-10-08T20:41:45;13.35;;;7.50;;
47513;SDS011;33951;51.988;5.910;2023-10-08T20:44:14;12.70;;;7.40;;
47513;SDS011;33951;51.988;5.910;2023-10-08T20:46:50;13.00;;;7.88;;
47513;SDS011;33951;51.988;5.910;2023-10-08T20:49:16;13.40;;;8.85;;
47513;SDS011;33951;51.988;5.910;2023-10-08T20:52:17;12.43;;;7.32;;
47513;SDS011;33951;51.988;5.910;2023-10-08T20:54:46;13.55;;;8.23;;
47513;SDS011;33951;51.988;5.910;2023-10-08T20:57:14;12.73;;;7.55;;
47513;SDS011;33951;51.988;5.910;2023-10-08T20:59:43;14.80;;;7.95;;
47513;SDS011;33951;51.988;5.910;2023-10-08T21:02:14;14.50;;;8.60;;
47513;SDS011;33951;51.988;5.910;2023-10-08T21:04:40;17.70;;;9.18;;
47513;SDS011;33951;51.988;5.910;2023-10-08T21:07:09;12.35;;;7.85;;
47513;SDS011;33951;51.988;5.910;2023-10-08T21:09:35;14.13;;;8.55;;
47513;SDS011;33951;51.988;5.910;2023-10-08T21:12:06;17.95;;;8.27;;
47513;SDS011;33951;51.988;5.910;2023-10-08T21:14:41;21.27;;;14.98;;
47513;SDS011;33951;51.988;5.910;2023-10-08T21:17:15;44.70;;;29.52;;
47513;SDS011;33951;51.988;5.910;2023-10-08T21:19:47;78.45;;;45.53;;
47513;SDS011;33951;51.988;5.910;2023-10-08T21:22:13;53.13;;;31.40;;
47513;SDS011;33951;51.988;5.910;2023-10-08T21:24:51;79.63;;;48.47;;
47513;SDS011;33951;51.988;5.910;2023-10-08T21:27:17;51.05;;;29.23;;
47513;SDS011;33951;51.988;5.910;2023-10-08T21:29:47;38.13;;;21.30;;
47513;SDS011;33951;51.988;5.910;2023-10-08T21:32:14;17.92;;;10.80;;
47513;SDS011;33951;51.988;5.910;2023-10-08T21:34:40;17.85;;;10.15;;
47513;SDS011;33951;51.988;5.910;2023-10-08T21:37:31;17.55;;;9.27;;
47513;SDS011;33951;51.988;5.910;2023-10-08T21:40:01;16.65;;;9.70;;
47513;SDS011;33951;51.988;5.910;2023-10-08T21:42:30;16.20;;;9.75;;
47513;SDS011;33951;51.988;5.910;2023-10-08T21:45:20;14.57;;;9.88;;
47513;SDS011;33951;51.988;5.910;2023-10-08T21:47:50;18.10;;;10.65;;
47513;SDS011;33951;51.988;5.910;2023-10-08T21:50:32;17.67;;;10.18;;
47513;SDS011;33951;51.988;5.910;2023-10-08T21:53:17;24.00;;;12.20;;
47513;SDS011;33951;51.988;5.910;2023-10-08T22:17:10;17.02;;;11.73;;
47513;SDS011;33951;51.988;5.910;2023-10-08T22:30:53;24.58;;;13.73;;
47513;SDS011;33951;51.988;5.910;2023-10-08T22:34:10;29.42;;;15.35;;
47513;SDS011;33951;51.988;5.910;2023-10-08T22:47:22;40.85;;;19.27;;
47513;SDS011;33951;51.988;5.910;2023-10-08T22:50:24;42.93;;;21.33;;
47513;SDS011;33951;51.988;5.910;2023-10-08T22:57:17;33.35;;;18.05;;
47513;SDS011;33951;51.988;5.910;2023-10-08T23:00:21;35.38;;;20.63;;
47513;SDS011;33951;51.988;5.910;2023-10-08T23:09:37;47.42;;;23.52;;
47513;SDS011;33951;51.988;5.910;2023-10-08T23:12:40;42.35;;;22.95;;
47513;SDS011;33951;51.988;5.910;2023-10-08T23:15:50;40.60;;;24.00;;
47513;SDS011;33951;51.988;5.910;2023-10-08T23:18:49;48.85;;;27.63;;
47513;SDS011;33951;51.988;5.910;2023-10-08T23:22:16;49.05;;;26.95;;
47513;SDS011;33951;51.988;5.910;2023-10-08T23:24:42;36.78;;;23.42;;
47513;SDS011;33951;51.988;5.910;2023-10-08T23:27:20;58.45;;;30.15;;
47513;SDS011;33951;51.988;5.910;2023-10-08T23:29:50;45.88;;;27.65;;
47513;SDS011;33951;51.988;5.910;2023-10-08T23:45:33;55.33;;;29.92;;
47513;SDS011;33951;51.988;5.910;2023-10-08T23:59:34;52.10;;;29.92;;
